createdAt,value
2018-12-30T00:00:26.326Z,6.10
2018-12-30T00:03:14.620Z,4.90
2018-12-30T00:05:44.439Z,6.20
2018-12-30T00:08:14.052Z,6.80
2018-12-30T00:10:43.292Z,5.60
2018-12-30T00:13:31.635Z,7.10
2018-12-30T00:16:00.859Z,6.13
2018-12-30T00:18:30.010Z,7.30
2018-12-30T00:20:59.246Z,6.97
2018-12-30T00:23:47.811Z,6.93
2018-12-30T00:26:17.115Z,7.73
2018-12-30T00:28:46.338Z,5.47
2018-12-30T00:31:16.237Z,7.30
2018-12-30T00:33:45.569Z,4.93
2018-12-30T00:36:14.779Z,4.23
2018-12-30T00:38:44.055Z,12.23
2018-12-30T00:41:13.302Z,9.27
2018-12-30T00:43:42.531Z,6.03
2018-12-30T00:46:11.775Z,6.90
2018-12-30T00:48:41.020Z,5.80
2018-12-30T00:51:16.831Z,7.50
2018-12-30T00:53:41.099Z,6.87
2018-12-30T00:56:10.783Z,5.60
2018-12-30T00:58:40.014Z,6.53
2018-12-30T01:01:09.687Z,5.90
2018-12-30T01:03:38.919Z,5.33
2018-12-30T01:06:08.046Z,8.03
2018-12-30T01:08:37.206Z,7.70
2018-12-30T01:11:06.731Z,7.13
2018-12-30T01:13:36.044Z,7.33
2018-12-30T01:16:05.255Z,5.63
2018-12-30T01:18:34.586Z,7.43
2018-12-30T01:21:04.195Z,5.00
2018-12-30T01:23:33.476Z,8.77
2018-12-30T01:26:02.717Z,9.90
2018-12-30T01:28:32.629Z,6.97
2018-12-30T01:31:01.876Z,7.37
2018-12-30T01:33:31.494Z,6.57
2018-12-30T01:36:00.691Z,7.13
2018-12-30T01:38:30.220Z,5.10
2018-12-30T01:40:59.407Z,5.93
2018-12-30T01:43:28.700Z,5.83
2018-12-30T01:45:58.291Z,6.07
2018-12-30T01:48:27.559Z,6.30
2018-12-30T01:50:56.759Z,4.63
2018-12-30T01:53:26.179Z,6.40
2018-12-30T01:55:55.403Z,6.20
2018-12-30T01:58:25.043Z,5.73
2018-12-30T02:00:54.499Z,8.87
2018-12-30T02:03:23.752Z,6.57
2018-12-30T02:05:52.976Z,5.50
2018-12-30T02:08:22.119Z,6.03
2018-12-30T02:10:51.396Z,5.67
2018-12-30T02:13:20.684Z,6.63
2018-12-30T02:15:50.199Z,5.30
2018-12-30T02:18:19.745Z,6.60
2018-12-30T02:20:49.360Z,8.77
2018-12-30T02:23:18.497Z,6.17
2018-12-30T02:25:47.752Z,5.47
2018-12-30T02:28:16.972Z,7.47
2018-12-30T02:30:46.292Z,4.90
2018-12-30T02:33:15.535Z,7.97
2018-12-30T02:35:44.872Z,8.43
2018-12-30T02:38:14.091Z,5.83
2018-12-30T02:40:43.977Z,7.87
2018-12-30T02:43:13.579Z,4.47
2018-12-30T02:45:42.855Z,6.60
2018-12-30T02:48:12.025Z,4.43
2018-12-30T02:50:41.693Z,4.80
2018-12-30T02:53:10.820Z,6.83
2018-12-30T02:55:40.053Z,4.80
2018-12-30T02:58:09.191Z,6.97
2018-12-30T03:00:38.478Z,3.97
2018-12-30T03:03:08.130Z,4.77
2018-12-30T03:05:37.328Z,5.77
2018-12-30T03:08:07.264Z,5.43
2018-12-30T03:10:36.506Z,5.47
2018-12-30T03:13:05.654Z,5.53
2018-12-30T03:15:34.908Z,5.07
2018-12-30T03:18:04.063Z,3.40
2018-12-30T03:20:33.199Z,3.30
2018-12-30T03:23:02.322Z,4.03
2018-12-30T03:25:31.981Z,3.40
2018-12-30T03:28:01.514Z,4.20
2018-12-30T03:30:31.289Z,4.77
2018-12-30T03:33:00.456Z,4.90
2018-12-30T03:35:29.895Z,6.33
2018-12-30T03:37:59.094Z,5.20
2018-12-30T03:40:28.636Z,3.67
2018-12-30T03:42:58.176Z,5.93
2018-12-30T03:45:27.395Z,3.27
2018-12-30T03:47:56.551Z,4.93
2018-12-30T03:50:25.675Z,5.63
2018-12-30T03:52:55.276Z,6.53
2018-12-30T03:55:24.415Z,3.00
2018-12-30T03:57:53.548Z,6.87
2018-12-30T04:00:22.683Z,5.73
2018-12-30T04:02:51.868Z,3.50
2018-12-30T04:05:21.007Z,5.13
2018-12-30T04:07:50.205Z,3.67
2018-12-30T04:10:19.460Z,4.87
2018-12-30T04:12:48.881Z,7.60
2018-12-30T04:15:18.012Z,4.80
2018-12-30T04:17:47.186Z,3.17
2018-12-30T04:20:16.700Z,7.50
2018-12-30T04:22:45.874Z,5.07
2018-12-30T04:25:15.066Z,5.37
2018-12-30T04:27:44.207Z,5.87
2018-12-30T04:30:13.674Z,4.63
2018-12-30T04:32:43.189Z,5.83
2018-12-30T04:35:12.308Z,5.57
2018-12-30T04:37:41.447Z,4.90
2018-12-30T04:40:10.978Z,5.47
2018-12-30T04:42:40.117Z,6.23
2018-12-30T04:45:09.264Z,7.00
2018-12-30T04:47:38.430Z,6.00
2018-12-30T04:50:08.027Z,7.80
2018-12-30T04:52:37.164Z,9.03
2018-12-30T04:55:06.320Z,8.10
2018-12-30T04:57:35.777Z,9.30
2018-12-30T05:00:05.367Z,5.40
2018-12-30T05:02:34.540Z,5.27
2018-12-30T05:05:03.679Z,9.37
2018-12-30T05:07:32.899Z,4.93
2018-12-30T05:10:02.056Z,10.80
2018-12-30T05:12:31.895Z,7.30
2018-12-30T05:15:01.400Z,8.67
2018-12-30T05:17:30.562Z,5.83
2018-12-30T05:19:59.694Z,7.97
2018-12-30T05:22:33.836Z,6.30
2018-12-30T05:24:59.880Z,5.53
2018-12-30T05:27:29.045Z,10.50
2018-12-30T05:29:58.194Z,6.63
2018-12-30T05:32:27.425Z,6.83
2018-12-30T05:34:56.625Z,6.20
2018-12-30T05:37:25.863Z,6.93
2018-12-30T05:39:55.024Z,6.13
2018-12-30T05:42:24.253Z,8.17
2018-12-30T05:44:53.416Z,6.13
2018-12-30T05:47:22.952Z,6.87
2018-12-30T05:49:52.071Z,10.53
2018-12-30T05:52:21.459Z,8.37
2018-12-30T05:54:51.259Z,7.87
2018-12-30T05:57:20.412Z,6.20
2018-12-30T05:59:49.563Z,7.23
2018-12-30T06:02:18.715Z,7.10
2018-12-30T06:04:47.851Z,9.10
2018-12-30T06:07:16.991Z,7.77
2018-12-30T06:12:33.835Z,6.30
2018-12-30T06:15:02.967Z,5.50
2018-12-30T06:17:32.107Z,6.43
2018-12-30T06:20:20.297Z,11.50
2018-12-30T06:22:51.772Z,7.17
2018-12-30T06:25:21.195Z,5.67
2018-12-30T06:27:50.379Z,12.93
2018-12-30T06:30:38.675Z,9.23
2018-12-30T06:33:07.931Z,6.70
2018-12-30T06:35:37.081Z,6.73
2018-12-30T06:38:06.199Z,7.67
2018-12-30T06:43:21.312Z,10.47
2018-12-30T06:45:50.568Z,13.33
2018-12-30T06:48:19.743Z,9.83
2018-12-30T06:50:48.905Z,14.00
2018-12-30T06:53:18.044Z,9.60
2018-12-30T06:55:47.315Z,7.27
2018-12-30T06:58:16.548Z,9.47
2018-12-30T07:00:45.750Z,6.73
2018-12-30T07:03:15.544Z,7.20
2018-12-30T07:05:44.681Z,7.47
2018-12-30T07:08:13.817Z,6.87
2018-12-30T07:10:43.100Z,8.17
2018-12-30T07:13:12.311Z,8.80
2018-12-30T07:15:41.436Z,8.90
2018-12-30T07:18:11.167Z,8.07
2018-12-30T07:20:40.698Z,6.80
2018-12-30T07:23:10.163Z,8.63
2018-12-30T07:25:39.316Z,8.83
2018-12-30T07:28:08.822Z,8.70
2018-12-30T07:30:38.066Z,9.43
2018-12-30T07:33:07.228Z,9.10
2018-12-30T07:35:36.686Z,9.03
2018-12-30T07:38:05.823Z,6.97
2018-12-30T07:40:34.998Z,13.50
2018-12-30T07:43:04.275Z,11.30
2018-12-30T07:45:33.499Z,9.33
2018-12-30T08:01:10.713Z,11.27
2018-12-30T08:03:39.945Z,9.27
2018-12-30T08:06:09.505Z,11.80
2018-12-30T08:08:38.713Z,10.17
2018-12-30T08:11:07.958Z,10.63
2018-12-30T08:13:43.031Z,11.33
2018-12-30T08:16:12.198Z,10.60
2018-12-30T08:18:41.403Z,9.93
2018-12-30T08:21:10.664Z,8.47
2018-12-30T08:23:39.865Z,8.63
2018-12-30T08:26:09.092Z,9.10
2018-12-30T08:28:39.332Z,8.13
2018-12-30T08:31:09.001Z,7.77
2018-12-30T08:33:38.129Z,8.53
2018-12-30T08:36:07.606Z,6.87
2018-12-30T08:38:36.783Z,12.43
2018-12-30T08:41:05.933Z,10.13
2018-12-30T08:43:35.396Z,11.73
2018-12-30T08:46:04.555Z,12.03
2018-12-30T08:48:34.121Z,11.97
2018-12-30T08:51:03.370Z,10.33
2018-12-30T08:53:32.899Z,9.43
2018-12-30T08:56:02.124Z,10.37
2018-12-30T08:58:31.275Z,11.40
2018-12-30T09:01:00.512Z,11.57
2018-12-30T09:03:29.990Z,9.57
2018-12-30T09:05:59.161Z,8.70
2018-12-30T09:08:28.633Z,11.30
2018-12-30T09:10:57.935Z,13.63
2018-12-30T09:13:27.549Z,10.83
2018-12-30T09:15:56.761Z,12.17
2018-12-30T09:18:25.921Z,10.33
2018-12-30T09:20:55.173Z,10.07
2018-12-30T09:23:24.315Z,12.60
2018-12-30T09:25:53.892Z,8.30
2018-12-30T09:28:23.088Z,9.83
2018-12-30T09:30:52.637Z,10.53
2018-12-30T09:33:21.860Z,12.77
2018-12-30T09:35:51.377Z,9.83
2018-12-30T09:38:20.524Z,12.00
2018-12-30T09:40:49.932Z,10.43
2018-12-30T09:43:19.568Z,11.87
2018-12-30T09:45:49.096Z,11.53
2018-12-30T09:48:18.239Z,10.80
2018-12-30T09:50:47.800Z,13.10
2018-12-30T09:53:17.087Z,13.10
2018-12-30T09:55:46.334Z,10.90
2018-12-30T09:58:15.915Z,10.73
2018-12-30T10:00:45.404Z,10.93
2018-12-30T10:03:14.572Z,12.27
2018-12-30T10:05:43.735Z,12.23
2018-12-30T10:08:12.977Z,11.77
2018-12-30T10:10:42.197Z,13.30
2018-12-30T10:13:11.389Z,11.87
2018-12-30T10:15:40.794Z,11.07
2018-12-30T10:18:10.331Z,11.33
2018-12-30T10:20:39.512Z,11.87
2018-12-30T10:23:08.661Z,13.67
2018-12-30T10:25:37.826Z,12.50
2018-12-30T10:28:07.027Z,12.13
2018-12-30T10:30:36.535Z,12.50
2018-12-30T10:33:06.025Z,14.13
2018-12-30T10:35:35.293Z,12.03
2018-12-30T10:38:04.452Z,12.27
2018-12-30T10:40:33.623Z,12.70
2018-12-30T10:43:03.222Z,10.93
2018-12-30T10:45:32.793Z,12.93
2018-12-30T10:48:02.019Z,12.37
2018-12-30T10:50:31.269Z,12.60
2018-12-30T10:53:00.496Z,14.47
2018-12-30T10:55:29.729Z,11.37
2018-12-30T10:57:59.174Z,14.27
2018-12-30T11:00:28.349Z,12.60
2018-12-30T11:02:57.510Z,13.43
2018-12-30T11:05:27.083Z,14.60
2018-12-30T11:07:56.329Z,11.90
2018-12-30T11:10:25.841Z,12.83
2018-12-30T11:12:55.114Z,15.47
2018-12-30T11:15:24.278Z,14.23
2018-12-30T11:17:53.522Z,16.43
2018-12-30T11:20:22.780Z,13.50
2018-12-30T11:22:52.279Z,15.83
2018-12-30T11:25:21.539Z,14.73
2018-12-30T11:27:50.851Z,14.53
2018-12-30T11:30:20.491Z,13.37
2018-12-30T11:32:50.042Z,15.57
2018-12-30T11:35:19.718Z,14.77
2018-12-30T11:37:48.868Z,12.03
2018-12-30T11:40:18.091Z,15.80
2018-12-30T11:42:47.274Z,12.27
2018-12-30T11:45:16.435Z,11.43
2018-12-30T11:47:45.974Z,14.10
2018-12-30T11:50:15.838Z,13.97
2018-12-30T11:52:45.029Z,10.70
2018-12-30T11:55:14.575Z,15.93
2018-12-30T11:57:43.787Z,14.00
2018-12-30T12:00:13.422Z,15.17
2018-12-30T12:02:42.567Z,12.87
2018-12-30T12:05:12.140Z,12.33
2018-12-30T12:07:41.283Z,12.63
2018-12-30T12:10:10.446Z,15.80
2018-12-30T12:12:39.654Z,12.87
2018-12-30T12:15:08.872Z,12.37
2018-12-30T12:17:38.043Z,21.37
2018-12-30T12:20:07.332Z,18.80
2018-12-30T12:22:38.034Z,12.37
2018-12-30T12:25:08.000Z,15.43
2018-12-30T12:27:37.224Z,14.27
2018-12-30T12:30:08.528Z,15.10
2018-12-30T12:32:37.683Z,15.80
2018-12-30T12:35:07.974Z,15.03
2018-12-30T12:37:37.555Z,15.37
2018-12-30T12:40:06.784Z,12.23
2018-12-30T12:42:35.951Z,15.90
2018-12-30T12:45:06.145Z,14.27
2018-12-30T12:47:35.347Z,16.30
2018-12-30T12:50:04.710Z,13.13
2018-12-30T12:52:34.269Z,15.43
2018-12-30T12:55:03.446Z,14.17
2018-12-30T12:57:32.704Z,14.60
2018-12-30T13:00:01.889Z,12.43
2018-12-30T13:02:31.144Z,12.37
2018-12-30T13:05:00.334Z,16.10
2018-12-30T13:07:29.509Z,16.63
2018-12-30T13:09:59.199Z,18.23
2018-12-30T13:12:28.751Z,16.47
2018-12-30T13:14:58.051Z,15.37
2018-12-30T13:17:27.179Z,17.13
2018-12-30T13:19:56.424Z,15.97
2018-12-30T13:22:25.656Z,18.67
2018-12-30T13:24:54.971Z,13.70
2018-12-30T13:27:24.243Z,17.87
2018-12-30T13:29:53.811Z,21.27
2018-12-30T13:32:22.977Z,18.77
2018-12-30T13:34:52.243Z,15.37
2018-12-30T13:37:21.383Z,17.13
2018-12-30T13:39:50.534Z,16.13
2018-12-30T13:42:19.840Z,14.83
2018-12-30T13:44:49.343Z,18.07
2018-12-30T13:47:18.508Z,15.93
2018-12-30T13:49:47.774Z,20.33
2018-12-30T13:52:16.999Z,14.13
2018-12-30T13:54:47.907Z,17.30
2018-12-30T13:57:17.344Z,16.83
2018-12-30T13:59:46.498Z,22.63
2018-12-30T14:02:15.742Z,20.63
2018-12-30T14:04:45.092Z,15.37
2018-12-30T14:07:14.328Z,17.93
2018-12-30T14:09:43.936Z,20.30
2018-12-30T14:12:13.097Z,17.37
2018-12-30T14:14:42.264Z,20.93
2018-12-30T14:17:11.512Z,16.73
2018-12-30T14:19:40.970Z,16.70
2018-12-30T14:24:56.190Z,19.37
2018-12-30T14:27:25.714Z,19.20
2018-12-30T14:29:54.874Z,24.63
2018-12-30T14:32:24.085Z,18.27
2018-12-30T14:34:53.307Z,20.53
2018-12-30T14:37:22.886Z,20.43
2018-12-30T14:39:52.153Z,20.20
2018-12-30T14:42:21.339Z,19.77
2018-12-30T14:45:09.682Z,19.50
2018-12-30T14:47:40.348Z,17.40
2018-12-30T14:50:11.654Z,19.33
2018-12-30T14:52:41.303Z,22.23
2018-12-30T14:55:29.596Z,31.63
2018-12-30T14:57:58.854Z,17.43
2018-12-30T15:00:28.027Z,19.80
2018-12-30T15:02:57.399Z,16.77
2018-12-30T15:05:26.637Z,14.93
2018-12-30T15:07:55.924Z,19.73
2018-12-30T15:10:25.080Z,19.00
2018-12-30T15:12:54.648Z,17.90
2018-12-30T15:15:24.038Z,20.90
2018-12-30T15:18:12.977Z,17.00
2018-12-30T15:20:42.122Z,18.50
2018-12-30T15:23:11.735Z,21.83
2018-12-30T15:25:41.001Z,22.97
2018-12-30T15:28:29.231Z,19.93
2018-12-30T15:30:58.395Z,20.50
2018-12-30T15:33:46.628Z,19.47
2018-12-30T15:36:15.822Z,18.53
2018-12-30T15:38:44.976Z,19.07
2018-12-30T15:41:14.121Z,19.27
2018-12-30T15:43:43.362Z,20.70
2018-12-30T15:46:12.508Z,22.57
2018-12-30T15:49:00.700Z,21.93
2018-12-30T15:51:30.119Z,23.73
2018-12-30T15:53:59.267Z,24.93
2018-12-30T15:56:28.451Z,21.60
2018-12-30T16:01:41.625Z,25.17
2018-12-30T16:04:10.936Z,22.83
2018-12-30T16:06:40.099Z,24.37
2018-12-30T16:09:09.343Z,22.37
2018-12-30T16:11:38.560Z,25.27
2018-12-30T16:14:07.721Z,26.37
2018-12-30T16:16:36.916Z,24.77
2018-12-30T16:19:06.229Z,23.43
2018-12-30T16:21:54.474Z,27.87
2018-12-30T16:24:23.778Z,27.07
2018-12-30T16:26:53.074Z,28.47
2018-12-30T16:29:22.250Z,29.83
2018-12-30T16:32:12.066Z,27.93
2018-12-30T16:34:41.320Z,28.20
2018-12-30T16:37:10.476Z,29.13
2018-12-30T16:39:39.733Z,33.53
2018-12-30T16:42:27.963Z,32.20
2018-12-30T16:44:57.130Z,33.43
2018-12-30T16:47:26.420Z,30.83
2018-12-30T16:49:55.706Z,33.63
2018-12-30T16:55:09.712Z,27.37
2018-12-30T16:57:38.944Z,26.70
2018-12-30T17:00:09.631Z,29.10
2018-12-30T17:02:58.760Z,29.30
2018-12-30T17:05:10.480Z,29.17
2018-12-30T17:07:40.204Z,25.03
2018-12-30T17:10:10.224Z,25.37
2018-12-30T17:12:39.550Z,26.37
2018-12-30T17:15:27.919Z,23.33
2018-12-30T17:17:57.264Z,22.70
2018-12-30T17:20:26.633Z,23.13
2018-12-30T17:22:55.825Z,23.70
2018-12-30T17:25:25.064Z,25.77
2018-12-30T17:27:54.533Z,23.00
2018-12-30T17:30:23.788Z,26.40
2018-12-30T17:32:52.956Z,22.70
2018-12-30T17:35:22.228Z,19.90
2018-12-30T17:37:51.816Z,20.53
2018-12-30T17:40:21.386Z,21.53
2018-12-30T17:42:50.637Z,20.97
2018-12-30T17:45:20.561Z,22.83
2018-12-30T17:47:49.723Z,22.97
2018-12-30T17:50:18.885Z,22.57
2018-12-30T17:52:48.148Z,24.57
2018-12-30T17:55:17.307Z,24.47
2018-12-30T17:57:46.472Z,23.17
2018-12-30T18:00:16.459Z,23.70
2018-12-30T18:02:45.628Z,22.57
2018-12-30T18:05:14.809Z,23.40
2018-12-30T18:07:44.069Z,24.20
2018-12-30T18:10:13.882Z,24.83
2018-12-30T18:12:43.039Z,22.90
2018-12-30T18:15:12.607Z,21.00
2018-12-30T18:17:41.909Z,21.73
2018-12-30T18:20:11.119Z,24.07
2018-12-30T18:22:40.391Z,25.97
2018-12-30T18:25:27.906Z,22.97
2018-12-30T18:27:58.041Z,24.77
2018-12-30T18:30:27.671Z,23.87
2018-12-30T18:32:56.848Z,24.07
2018-12-30T18:35:26.051Z,23.73
2018-12-30T18:38:12.930Z,25.00
2018-12-30T18:40:42.588Z,22.90
2018-12-30T18:43:30.286Z,23.33
2018-12-30T18:45:59.485Z,28.37
2018-12-30T18:48:28.662Z,22.83
2018-12-30T18:50:57.825Z,23.80
2018-12-30T18:53:27.344Z,23.63
2018-12-30T18:55:56.845Z,23.70
2018-12-30T18:58:26.002Z,25.03
2018-12-30T19:01:14.680Z,25.23
2018-12-30T19:03:43.943Z,26.33
2018-12-30T19:06:30.772Z,24.77
2018-12-30T19:09:00.022Z,22.30
2018-12-30T19:11:29.323Z,24.30
2018-12-30T19:13:58.886Z,24.93
2018-12-30T19:16:28.118Z,23.73
2018-12-30T19:19:15.500Z,25.37
2018-12-30T19:21:44.750Z,26.07
2018-12-30T19:24:14.278Z,26.43
2018-12-30T19:26:43.480Z,25.57
2018-12-30T19:29:12.712Z,27.03
2018-12-30T19:31:59.583Z,22.87
2018-12-30T19:34:46.865Z,21.40
2018-12-30T19:37:16.233Z,21.13
2018-12-30T19:39:45.398Z,26.03
2018-12-30T19:42:14.700Z,24.63
2018-12-30T19:44:43.878Z,23.27
2018-12-30T19:47:13.395Z,23.77
2018-12-30T19:49:43.278Z,25.77
2018-12-30T19:52:13.345Z,22.53
2018-12-30T19:54:43.222Z,23.83
2018-12-30T19:57:13.243Z,21.00
2018-12-30T19:59:43.063Z,22.47
2018-12-30T20:02:12.762Z,22.67
2018-12-30T20:04:42.677Z,21.70
2018-12-30T20:07:13.230Z,25.50
2018-12-30T20:09:43.237Z,21.30
2018-12-30T20:12:13.154Z,24.03
2018-12-30T20:14:43.556Z,21.07
2018-12-30T20:17:13.498Z,22.77
2018-12-30T20:19:43.407Z,22.47
2018-12-30T20:22:13.468Z,20.87
2018-12-30T20:24:43.442Z,21.50
2018-12-30T20:27:13.352Z,22.20
2018-12-30T20:29:43.197Z,21.60
2018-12-30T20:32:13.074Z,21.80
2018-12-30T20:34:42.597Z,22.97
2018-12-30T20:37:12.142Z,22.27
2018-12-30T20:39:41.725Z,21.80
2018-12-30T20:42:11.234Z,21.63
2018-12-30T20:44:40.764Z,22.47
2018-12-30T20:47:10.306Z,20.53
2018-12-30T20:49:39.623Z,20.50
2018-12-30T20:52:09.303Z,20.37
2018-12-30T20:54:40.648Z,21.90
2018-12-30T20:57:09.806Z,21.10
2018-12-30T20:59:39.432Z,20.70
2018-12-30T21:02:09.047Z,22.77
2018-12-30T21:04:38.192Z,20.13
2018-12-30T21:07:07.398Z,21.20
2018-12-30T21:09:36.550Z,22.33
2018-12-30T21:12:05.705Z,19.23
2018-12-30T21:14:34.894Z,22.30
2018-12-30T21:17:04.074Z,24.30
2018-12-30T21:19:33.705Z,23.20
2018-12-30T21:22:03.184Z,19.90
2018-12-30T21:24:32.359Z,26.00
2018-12-30T21:27:01.887Z,24.93
2018-12-30T21:29:31.141Z,25.57
2018-12-30T21:32:00.353Z,24.40
2018-12-30T21:34:29.634Z,22.93
2018-12-30T21:36:58.942Z,22.27
2018-12-30T21:39:28.116Z,22.70
2018-12-30T21:41:57.344Z,24.40
2018-12-30T21:44:26.589Z,23.60
2018-12-30T21:46:55.890Z,26.10
2018-12-30T21:49:25.207Z,24.57
2018-12-30T21:51:54.395Z,24.93
2018-12-30T21:54:23.606Z,23.57
2018-12-30T21:56:54.850Z,24.17
2018-12-30T21:59:24.059Z,24.57
2018-12-30T22:01:53.284Z,23.33
2018-12-30T22:04:22.519Z,25.77
2018-12-30T22:06:51.828Z,23.80
2018-12-30T22:09:20.980Z,24.40
2018-12-30T22:11:50.337Z,23.80
2018-12-30T22:14:20.126Z,24.07
2018-12-30T22:16:49.406Z,23.60
2018-12-30T22:19:18.621Z,21.77
2018-12-30T22:21:51.974Z,21.67
2018-12-30T22:24:21.670Z,20.63
2018-12-30T22:26:51.041Z,22.60
2018-12-30T22:29:20.247Z,19.00
2018-12-30T22:32:08.446Z,18.53
2018-12-30T22:34:37.763Z,17.77
2018-12-30T22:37:07.353Z,17.80
2018-12-30T22:39:36.634Z,16.13
2018-12-30T22:42:32.582Z,15.30
2018-12-30T22:44:56.207Z,18.87
2018-12-30T22:47:25.496Z,16.47
2018-12-30T22:49:54.890Z,17.63
2018-12-30T22:52:44.523Z,17.67
2018-12-30T22:55:13.757Z,15.47
2018-12-30T22:57:42.927Z,16.07
2018-12-30T23:00:26.025Z,16.37
2018-12-30T23:05:26.260Z,16.67
2018-12-30T23:07:55.894Z,17.63
2018-12-30T23:10:25.072Z,15.73
2018-12-30T23:12:54.309Z,15.83
2018-12-30T23:15:23.951Z,16.13
2018-12-30T23:17:53.167Z,14.77
2018-12-30T23:20:22.466Z,15.23
2018-12-30T23:22:51.716Z,14.53
2018-12-30T23:25:39.938Z,15.33
2018-12-30T23:28:09.154Z,13.83
2018-12-30T23:30:38.812Z,11.70
2018-12-30T23:33:08.172Z,14.90
2018-12-30T23:35:56.540Z,13.07
2018-12-30T23:38:25.886Z,12.07
2018-12-30T23:40:55.498Z,11.50
2018-12-30T23:43:24.732Z,13.10
2018-12-30T23:46:13.065Z,11.60
2018-12-30T23:48:42.393Z,11.97
2018-12-30T23:51:11.983Z,11.03
2018-12-30T23:53:41.202Z,10.33
2018-12-30T23:56:29.472Z,10.53
2018-12-30T23:58:58.813Z,8.90
